Weather at Al Dhafra Beach Hotel Heliport

Public forecast

Using degrees Celsius for public forecast. Weather courtesy of forecast.io.

Closest aviation weather report (METAR) to Al Dhafra Beach Hotel Heliport

Closest report is Hamad International Airport, 87.4 nm (162.0 km) NW.

2023/03/26 02:00 (retrieved 54 minutes ago)

OTHH 260200Z AUTO 12011KT CAVOK 22/18 Q1009 NOSIG

Closest aviation forecast (TAF) to Al Dhafra Beach Hotel Heliport

Forecast is more than 6 hours old.

Closest forecast is Hamad International Airport, 87.4 nm (162.0 km) NW.

2023/03/25 18:00 (retrieved 9 hours ago)

TAF OTHH 251701Z 2518/2624 13010KT CAVOK TEMPO 2612/2624 07012KT PROB40 TEMPO 2614/2624 01018KT 7000 -RA FEW050 BKN120 PROB30 TEMPO 2620/2624 5000 SHRA FEW050CB